createdAt,value
2023-03-15T00:01:08.566Z,85.77
2023-03-15T00:03:38.839Z,85.11
2023-03-15T00:06:07.970Z,84.60
2023-03-15T00:08:36.362Z,85.11
2023-03-15T00:11:07.062Z,85.09
2023-03-15T00:13:35.939Z,84.89
2023-03-15T00:16:06.224Z,84.86
2023-03-15T00:18:37.454Z,84.26
2023-03-15T00:21:06.204Z,84.66
2023-03-15T00:23:34.652Z,84.43
2023-03-15T00:26:03.185Z,84.58
2023-03-15T00:28:34.250Z,84.07
2023-03-15T00:31:07.712Z,83.60
2023-03-15T00:33:37.648Z,84.06
2023-03-15T00:36:10.258Z,83.43
2023-03-15T00:38:40.838Z,83.38
2023-03-15T00:41:12.174Z,83.75
2023-03-15T00:43:42.163Z,83.18
2023-03-15T00:46:11.688Z,83.18
2023-03-15T00:48:40.557Z,82.95
2023-03-15T00:51:13.331Z,82.33
2023-03-15T00:53:44.348Z,81.28
2023-03-15T00:56:13.851Z,81.38
2023-03-15T00:58:44.344Z,80.73
2023-03-15T01:01:15.613Z,80.91
2023-03-15T01:03:44.459Z,80.80
2023-03-15T01:06:15.223Z,80.85
2023-03-15T01:08:45.603Z,80.94
2023-03-15T01:11:20.742Z,81.46
2023-03-15T01:13:50.609Z,80.27
2023-03-15T01:16:19.337Z,80.27
2023-03-15T01:18:47.705Z,81.16
2023-03-15T01:21:17.224Z,80.32
2023-03-15T01:23:45.985Z,80.08
2023-03-15T01:26:16.334Z,80.02
2023-03-15T01:28:46.201Z,79.34
2023-03-15T01:31:22.880Z,79.21
2023-03-15T01:33:51.653Z,78.60
2023-03-15T01:36:24.114Z,79.32
2023-03-15T01:38:55.202Z,79.01
2023-03-15T01:41:25.858Z,78.91
2023-03-15T01:43:55.001Z,79.63
2023-03-15T01:46:29.121Z,78.95
2023-03-15T01:49:03.334Z,79.37
2023-03-15T01:51:36.671Z,79.71
2023-03-15T01:54:10.806Z,78.60
2023-03-15T01:56:43.914Z,79.07
2023-03-15T01:59:18.022Z,78.76
2023-03-15T02:01:48.515Z,79.18
2023-03-15T02:04:21.831Z,79.15
2023-03-15T02:06:51.694Z,79.28
2023-03-15T02:09:22.337Z,79.04
2023-03-15T02:11:50.676Z,78.70
2023-03-15T02:14:19.633Z,78.66
2023-03-15T02:16:53.483Z,78.96
2023-03-15T02:19:35.230Z,79.04
2023-03-15T02:22:16.741Z,78.86
2023-03-15T02:24:51.904Z,79.20
2023-03-15T02:27:28.004Z,79.04
2023-03-15T02:29:58.408Z,79.15
2023-03-15T02:32:27.499Z,79.28
2023-03-15T02:34:55.715Z,79.51
2023-03-15T02:37:24.099Z,79.28
2023-03-15T02:39:55.843Z,79.18
2023-03-15T02:42:28.277Z,79.06
2023-03-15T02:44:57.733Z,79.07
2023-03-15T02:47:29.796Z,78.83
2023-03-15T02:49:59.653Z,79.23
2023-03-15T02:52:29.303Z,79.13
2023-03-15T02:54:57.566Z,79.22
2023-03-15T02:57:27.565Z,79.12
2023-03-15T02:59:58.416Z,79.03
2023-03-15T03:02:28.126Z,79.44
2023-03-15T03:04:56.555Z,79.09
2023-03-15T03:07:25.230Z,79.08
2023-03-15T03:09:54.386Z,79.55
2023-03-15T03:12:23.588Z,79.59
2023-03-15T03:14:53.249Z,79.23
2023-03-15T03:17:22.661Z,79.64
2023-03-15T03:19:51.718Z,79.40
2023-03-15T03:22:20.289Z,79.16
2023-03-15T03:24:48.862Z,79.42
2023-03-15T03:27:18.345Z,79.72
2023-03-15T03:29:46.845Z,79.47
2023-03-15T03:32:17.337Z,79.36
2023-03-15T03:34:48.599Z,80.22
2023-03-15T03:37:18.763Z,80.04
2023-03-15T03:39:48.841Z,79.87
2023-03-15T03:42:17.548Z,78.91
2023-03-15T03:44:45.705Z,78.46
2023-03-15T03:47:14.138Z,79.10
2023-03-15T03:49:45.164Z,78.50
2023-03-15T03:52:14.086Z,77.21
2023-03-15T03:54:42.816Z,77.21
2023-03-15T03:57:13.124Z,77.86
2023-03-15T03:59:43.698Z,76.49
2023-03-15T04:02:12.176Z,76.91
2023-03-15T04:04:42.367Z,76.17
2023-03-15T04:07:12.364Z,76.06
2023-03-15T04:09:41.911Z,76.66
2023-03-15T04:12:10.865Z,76.24
2023-03-15T04:14:39.270Z,76.73
2023-03-15T04:17:08.970Z,76.42
2023-03-15T04:19:38.569Z,76.40
2023-03-15T04:22:08.172Z,75.85
2023-03-15T04:24:39.964Z,75.65
2023-03-15T04:27:09.814Z,75.73
2023-03-15T04:29:38.439Z,74.98
2023-03-15T04:32:07.124Z,75.84
2023-03-15T04:34:39.178Z,75.75
2023-03-15T04:37:08.107Z,75.19
2023-03-15T04:39:39.364Z,75.43
2023-03-15T04:42:08.666Z,74.06
2023-03-15T04:44:37.372Z,74.66
2023-03-15T04:47:05.734Z,74.38
2023-03-15T04:49:34.731Z,73.96
2023-03-15T04:52:03.252Z,74.06
2023-03-15T04:54:31.817Z,74.54
2023-03-15T04:57:02.228Z,74.36
2023-03-15T04:59:31.866Z,74.44
2023-03-15T05:02:02.754Z,74.50
2023-03-15T05:04:32.136Z,75.47
2023-03-15T05:07:00.549Z,75.50
2023-03-15T05:09:29.064Z,75.21
2023-03-15T05:12:03.823Z,75.26
2023-03-15T05:14:33.508Z,75.13
2023-03-15T05:17:02.691Z,74.83
2023-03-15T05:19:34.379Z,75.14
2023-03-15T05:22:04.733Z,75.34
2023-03-15T05:24:33.482Z,75.23
2023-03-15T05:27:02.060Z,76.14
2023-03-15T05:29:30.666Z,76.99
2023-03-15T05:32:04.658Z,77.33
2023-03-15T05:34:36.633Z,77.09
2023-03-15T05:37:05.167Z,77.67
2023-03-15T05:39:35.695Z,78.07
2023-03-15T05:42:05.438Z,77.71
2023-03-15T05:44:33.940Z,77.85
2023-03-15T05:47:04.083Z,78.60
2023-03-15T05:49:33.055Z,78.75
2023-03-15T05:52:01.350Z,78.63
2023-03-15T05:54:31.771Z,79.07
2023-03-15T05:57:00.044Z,79.19
2023-03-15T05:59:28.833Z,79.35
2023-03-15T06:01:59.186Z,79.05
2023-03-15T06:04:28.828Z,79.18
2023-03-15T06:06:57.573Z,79.19
2023-03-15T06:09:26.466Z,79.58
2023-03-15T06:11:57.099Z,79.66
2023-03-15T06:14:25.558Z,79.23
2023-03-15T06:16:54.729Z,79.69
2023-03-15T06:19:24.068Z,79.85
2023-03-15T06:21:57.576Z,79.91
2023-03-15T06:24:27.601Z,80.06
2023-03-15T06:26:58.282Z,79.87
2023-03-15T06:29:27.331Z,80.09
2023-03-15T06:31:57.769Z,79.89
2023-03-15T06:34:26.980Z,79.80
2023-03-15T06:36:58.264Z,79.91
2023-03-15T06:39:27.508Z,80.25
2023-03-15T06:42:02.436Z,80.06
2023-03-15T06:44:32.144Z,79.94
2023-03-15T06:47:02.285Z,80.53
2023-03-15T06:49:33.269Z,80.75
2023-03-15T06:52:03.675Z,80.50
2023-03-15T06:54:34.601Z,80.30
2023-03-15T06:57:06.445Z,80.19
2023-03-15T06:59:35.923Z,79.81
2023-03-15T07:02:05.723Z,79.99
2023-03-15T07:04:35.826Z,79.63
2023-03-15T07:07:07.753Z,79.77
2023-03-15T07:09:37.969Z,79.35
2023-03-15T07:12:11.991Z,78.76
2023-03-15T07:14:40.980Z,78.63
2023-03-15T07:17:11.458Z,78.75
2023-03-15T07:19:50.232Z,77.48
2023-03-15T07:22:26.642Z,77.34
2023-03-15T07:24:56.993Z,77.93
2023-03-15T07:27:27.898Z,77.34
2023-03-15T07:29:57.382Z,77.33
2023-03-15T07:32:31.050Z,76.77
2023-03-15T07:35:00.662Z,76.95
2023-03-15T07:37:32.274Z,76.19
2023-03-15T07:40:09.841Z,75.77
2023-03-15T07:42:44.602Z,76.07
2023-03-15T07:45:16.534Z,75.73
2023-03-15T07:47:46.717Z,75.99
2023-03-15T07:50:17.645Z,75.88
2023-03-15T07:52:48.031Z,75.52
2023-03-15T07:55:17.828Z,75.09
2023-03-15T07:57:50.011Z,75.24
2023-03-15T08:00:25.601Z,75.28
2023-03-15T08:02:57.221Z,74.65
2023-03-15T08:05:29.097Z,74.47
2023-03-15T08:07:59.144Z,74.29
2023-03-15T08:10:27.999Z,74.22
2023-03-15T08:12:56.739Z,74.29
2023-03-15T08:15:25.332Z,73.67
2023-03-15T08:17:54.884Z,73.83
2023-03-15T08:20:36.351Z,73.73
2023-03-15T08:23:08.311Z,73.89
2023-03-15T08:25:40.894Z,73.53
2023-03-15T08:28:12.006Z,73.33
2023-03-15T08:30:41.515Z,73.06
2023-03-15T08:33:12.816Z,73.41
2023-03-15T08:35:41.509Z,73.47
2023-03-15T08:38:11.697Z,73.20
2023-03-15T08:40:41.891Z,72.89
2023-03-15T08:43:13.990Z,72.53
2023-03-15T08:45:59.680Z,73.07
2023-03-15T08:48:32.455Z,72.74
2023-03-15T08:51:05.849Z,72.60
2023-03-15T08:53:38.920Z,72.47
2023-03-15T08:56:07.705Z,73.41
2023-03-15T08:58:37.183Z,73.52
2023-03-15T09:01:06.253Z,72.71
2023-03-15T09:03:35.000Z,72.69
2023-03-15T09:06:04.429Z,71.90
2023-03-15T09:08:33.764Z,72.29
2023-03-15T09:11:03.981Z,71.79
2023-03-15T09:13:32.432Z,71.67
2023-03-15T09:16:01.012Z,71.31
2023-03-15T09:18:30.044Z,71.28
2023-03-15T09:21:00.181Z,71.17
2023-03-15T09:23:28.758Z,71.34
2023-03-15T09:25:58.666Z,71.17
2023-03-15T09:28:28.590Z,70.78
2023-03-15T09:30:59.939Z,70.84
2023-03-15T09:33:28.838Z,71.27
2023-03-15T09:35:57.029Z,71.82
2023-03-15T09:38:26.896Z,70.76
2023-03-15T09:40:59.442Z,70.74
2023-03-15T09:43:55.205Z,70.15
2023-03-15T09:46:31.171Z,69.72
2023-03-15T09:49:06.250Z,70.25
2023-03-15T09:51:43.502Z,69.87
2023-03-15T09:54:15.466Z,69.32
2023-03-15T09:56:50.859Z,69.44
2023-03-15T09:59:22.990Z,69.10
2023-03-15T10:02:00.638Z,69.28
2023-03-15T10:04:32.676Z,69.30
2023-03-15T10:07:05.160Z,68.90
2023-03-15T10:09:36.437Z,69.53
2023-03-15T10:12:12.443Z,69.99
2023-03-15T10:14:59.846Z,69.18
2023-03-15T10:17:36.901Z,68.88
2023-03-15T10:20:12.940Z,68.50
2023-03-15T10:22:51.513Z,68.03
2023-03-15T10:25:26.153Z,68.23
2023-03-15T10:27:59.364Z,68.16
2023-03-15T10:30:33.100Z,67.95
2023-03-15T10:33:05.851Z,67.66
2023-03-15T10:35:42.861Z,67.22
2023-03-15T10:38:17.600Z,67.17
2023-03-15T10:40:49.589Z,67.23
2023-03-15T10:43:23.320Z,66.67
2023-03-15T10:46:02.502Z,66.85
2023-03-15T10:48:33.592Z,66.64
2023-03-15T10:51:07.860Z,66.30
2023-03-15T10:53:53.646Z,66.01
2023-03-15T10:56:26.360Z,66.47
2023-03-15T10:59:11.346Z,65.93
2023-03-15T11:01:49.097Z,66.74
2023-03-15T11:04:22.220Z,65.09
2023-03-15T11:07:03.698Z,65.19
2023-03-15T11:09:42.701Z,65.46
2023-03-15T11:12:19.459Z,64.83
2023-03-15T11:14:50.173Z,64.75
2023-03-15T11:17:21.802Z,64.00
2023-03-15T11:19:57.417Z,63.96
2023-03-15T11:22:27.761Z,63.65
2023-03-15T11:24:59.277Z,63.41
2023-03-15T11:27:31.900Z,63.36
2023-03-15T11:30:04.942Z,62.82
2023-03-15T11:32:43.781Z,62.50
2023-03-15T11:35:15.984Z,62.34
2023-03-15T11:37:55.206Z,61.96
2023-03-15T11:40:36.641Z,62.46
2023-03-15T11:43:09.790Z,62.01
2023-03-15T11:45:43.112Z,61.74
2023-03-15T11:48:19.948Z,61.93
2023-03-15T11:50:51.494Z,61.35
2023-03-15T11:53:21.951Z,61.78
2023-03-15T11:55:55.816Z,61.18
2023-03-15T11:58:33.276Z,61.33
2023-03-15T12:01:06.359Z,60.74
2023-03-15T12:03:45.837Z,61.34
2023-03-15T12:06:38.511Z,60.56
2023-03-15T12:09:40.062Z,60.18
2023-03-15T12:12:37.783Z,59.85
2023-03-15T12:15:15.875Z,59.37
2023-03-15T12:17:47.331Z,59.45
2023-03-15T12:20:27.760Z,59.48
2023-03-15T12:23:21.154Z,60.05
2023-03-15T12:25:55.950Z,60.22
2023-03-15T12:28:32.021Z,59.94
2023-03-15T12:31:02.895Z,60.51
2023-03-15T12:33:33.742Z,59.62
2023-03-15T12:36:11.032Z,59.41
2023-03-15T12:38:42.005Z,60.07
2023-03-15T12:41:32.305Z,59.63
2023-03-15T12:44:38.905Z,59.24
2023-03-15T12:47:08.255Z,59.37
2023-03-15T12:49:44.413Z,59.08
2023-03-15T12:52:39.848Z,58.72
2023-03-15T12:55:17.899Z,58.40
2023-03-15T12:57:58.147Z,59.09
2023-03-15T13:00:28.795Z,58.31
2023-03-15T13:03:05.765Z,58.41
2023-03-15T13:05:47.072Z,58.21
2023-03-15T13:08:22.771Z,57.43
2023-03-15T13:11:14.512Z,57.96
2023-03-15T13:14:09.622Z,56.73
2023-03-15T13:16:44.913Z,56.66
2023-03-15T13:19:20.994Z,56.57
2023-03-15T13:22:11.914Z,56.43
2023-03-15T13:24:53.062Z,56.63
2023-03-15T13:27:39.460Z,56.29
2023-03-15T13:30:38.917Z,56.57
2023-03-15T13:33:25.549Z,56.64
2023-03-15T13:36:01.504Z,55.56
2023-03-15T13:38:36.520Z,55.28
2023-03-15T13:41:18.547Z,54.32
2023-03-15T13:43:49.564Z,54.71
2023-03-15T13:46:20.379Z,54.83
2023-03-15T13:48:51.031Z,54.98
2023-03-15T13:51:23.812Z,53.72
2023-03-15T13:53:55.281Z,53.75
2023-03-15T13:56:43.571Z,53.41
2023-03-15T13:59:19.576Z,52.79
2023-03-15T14:01:54.040Z,53.38
2023-03-15T14:04:26.911Z,52.44
2023-03-15T14:07:10.483Z,51.72
2023-03-15T14:09:41.498Z,51.60
2023-03-15T14:12:23.247Z,52.61
2023-03-15T14:14:53.862Z,51.40
2023-03-15T14:17:28.062Z,51.34
2023-03-15T14:20:09.453Z,51.99
2023-03-15T14:22:46.104Z,51.85
2023-03-15T14:25:23.653Z,51.65
2023-03-15T14:27:53.203Z,52.20
2023-03-15T14:30:24.129Z,51.39
2023-03-15T14:32:57.671Z,51.80
2023-03-15T14:35:32.326Z,51.73
2023-03-15T14:38:07.352Z,52.20
2023-03-15T14:40:38.688Z,52.04
2023-03-15T14:43:10.875Z,51.81
2023-03-15T14:45:40.108Z,51.75
2023-03-15T14:48:13.549Z,52.07
2023-03-15T14:50:47.270Z,51.51
2023-03-15T14:53:18.720Z,51.53
2023-03-15T14:55:47.188Z,51.13
2023-03-15T14:58:18.603Z,51.11
2023-03-15T15:00:55.564Z,51.14
2023-03-15T15:03:33.031Z,50.88
2023-03-15T15:06:03.446Z,51.26
2023-03-15T15:08:33.641Z,51.18
2023-03-15T15:11:02.803Z,50.57
2023-03-15T15:13:33.051Z,50.60
2023-03-15T15:16:01.911Z,50.56
2023-03-15T15:18:32.253Z,50.15
2023-03-15T15:21:05.662Z,50.83
2023-03-15T15:23:54.910Z,50.25
2023-03-15T15:26:28.081Z,50.41
2023-03-15T15:29:01.930Z,50.34
2023-03-15T15:31:33.872Z,50.25
2023-03-15T15:34:02.935Z,51.30
2023-03-15T15:36:33.793Z,49.87
2023-03-15T15:39:06.719Z,49.91
2023-03-15T15:41:36.252Z,49.88
2023-03-15T15:44:07.420Z,50.10
2023-03-15T15:46:35.921Z,49.94
2023-03-15T15:49:04.639Z,49.55
2023-03-15T15:51:38.212Z,49.06
2023-03-15T15:54:11.045Z,49.44
2023-03-15T15:56:47.338Z,50.40
2023-03-15T15:59:19.262Z,50.20
2023-03-15T16:02:00.048Z,50.01
2023-03-15T16:04:32.965Z,49.67
2023-03-15T16:07:03.912Z,49.55
2023-03-15T16:09:36.398Z,49.44
2023-03-15T16:12:16.269Z,49.04
2023-03-15T16:14:46.295Z,49.69
2023-03-15T16:17:18.720Z,49.25
2023-03-15T16:19:48.703Z,49.27
2023-03-15T16:22:21.508Z,49.03
2023-03-15T16:24:54.497Z,48.89
2023-03-15T16:27:27.367Z,48.85
2023-03-15T16:29:59.335Z,48.63
2023-03-15T16:32:43.554Z,48.61
2023-03-15T16:35:15.652Z,48.42
2023-03-15T16:37:47.734Z,48.17
2023-03-15T16:40:25.607Z,47.76
2023-03-15T16:42:58.580Z,47.87
2023-03-15T16:45:30.595Z,47.80
2023-03-15T16:47:59.086Z,48.36
2023-03-15T16:50:29.149Z,48.91
2023-03-15T16:53:01.025Z,48.00
2023-03-15T16:55:33.012Z,48.06
2023-03-15T16:58:02.324Z,48.30
2023-03-15T17:00:34.104Z,48.34
2023-03-15T17:03:06.129Z,48.74
2023-03-15T17:05:35.794Z,48.61
2023-03-15T17:08:05.613Z,48.18
2023-03-15T17:10:35.883Z,48.21
2023-03-15T17:13:05.399Z,47.77
2023-03-15T17:15:36.370Z,47.96
2023-03-15T17:18:05.593Z,47.76
2023-03-15T17:20:39.120Z,47.97
2023-03-15T17:23:08.252Z,48.13
2023-03-15T17:25:44.078Z,48.35
2023-03-15T17:28:12.749Z,48.68
2023-03-15T17:30:44.604Z,49.05
2023-03-15T17:33:14.394Z,49.13
2023-03-15T17:35:45.597Z,48.90
2023-03-15T17:38:21.848Z,49.44
2023-03-15T17:40:51.493Z,49.19
2023-03-15T17:43:22.543Z,49.91
2023-03-15T17:45:53.396Z,49.59
2023-03-15T17:48:26.678Z,50.09
2023-03-15T17:50:55.496Z,50.40
2023-03-15T17:53:23.981Z,50.29
2023-03-15T17:55:54.906Z,51.23
2023-03-15T17:58:26.561Z,50.89
2023-03-15T18:00:57.392Z,51.15
2023-03-15T18:03:26.339Z,51.19
2023-03-15T18:05:56.109Z,50.97
2023-03-15T18:08:25.167Z,51.63
2023-03-15T18:10:54.374Z,51.58
2023-03-15T18:13:24.470Z,52.24
2023-03-15T18:15:53.524Z,51.82
2023-03-15T18:18:24.321Z,51.85
2023-03-15T18:20:52.905Z,52.66
2023-03-15T18:23:22.005Z,52.35
2023-03-15T18:25:50.664Z,52.45
2023-03-15T18:28:18.995Z,52.76
2023-03-15T18:30:48.508Z,52.36
2023-03-15T18:33:17.666Z,53.06
2023-03-15T18:35:47.851Z,52.76
2023-03-15T18:38:18.630Z,52.98
2023-03-15T18:40:47.332Z,52.63
2023-03-15T18:43:16.313Z,53.11
2023-03-15T18:45:45.866Z,52.93
2023-03-15T18:48:15.241Z,52.67
2023-03-15T18:50:44.708Z,52.69
2023-03-15T18:53:15.219Z,52.75
2023-03-15T18:55:44.803Z,53.34
2023-03-15T18:58:13.701Z,53.44
2023-03-15T19:00:43.297Z,53.23
2023-03-15T19:03:13.310Z,52.93
2023-03-15T19:05:41.998Z,53.36
2023-03-15T19:08:10.965Z,53.32
2023-03-15T19:10:45.709Z,53.50
2023-03-15T19:13:15.107Z,53.03
2023-03-15T19:15:44.013Z,53.13
2023-03-15T19:18:32.736Z,53.06
2023-03-15T19:21:01.711Z,53.35
2023-03-15T19:23:29.918Z,53.08
2023-03-15T19:25:59.652Z,53.60
2023-03-15T19:28:28.226Z,53.50
2023-03-15T19:30:56.733Z,53.25
2023-03-15T19:33:25.164Z,53.69
2023-03-15T19:35:54.272Z,53.24
2023-03-15T19:38:25.253Z,53.41
2023-03-15T19:40:56.873Z,53.62
2023-03-15T19:43:27.815Z,53.84
2023-03-15T19:45:56.642Z,54.01
2023-03-15T19:48:25.513Z,53.25
2023-03-15T19:50:58.478Z,53.33
2023-03-15T19:53:28.254Z,53.23
2023-03-15T19:55:57.095Z,53.52
2023-03-15T19:58:25.437Z,53.54
2023-03-15T20:00:57.528Z,53.75
2023-03-15T20:03:26.887Z,53.63
2023-03-15T20:05:56.217Z,54.35
2023-03-15T20:08:26.359Z,55.02
2023-03-15T20:11:02.187Z,55.02
2023-03-15T20:13:31.888Z,55.21
2023-03-15T20:16:01.644Z,55.18
2023-03-15T20:18:31.608Z,54.76
2023-03-15T20:21:00.103Z,54.58
2023-03-15T20:23:28.753Z,55.03
2023-03-15T20:26:06.240Z,55.06
2023-03-15T20:28:35.483Z,54.87
2023-03-15T20:31:09.505Z,54.09
2023-03-15T20:33:38.089Z,54.37
2023-03-15T20:36:09.071Z,54.27
2023-03-15T20:38:38.643Z,54.22
2023-03-15T20:41:08.531Z,53.78
2023-03-15T20:43:38.005Z,54.24
2023-03-15T20:46:10.190Z,54.10
2023-03-15T20:48:38.817Z,54.64
2023-03-15T20:51:07.880Z,54.66
2023-03-15T20:53:37.566Z,54.59
2023-03-15T20:56:06.875Z,53.99
2023-03-15T20:58:35.255Z,54.63
2023-03-15T21:01:05.529Z,54.16
2023-03-15T21:03:35.559Z,54.43
2023-03-15T21:06:05.398Z,54.69
2023-03-15T21:08:34.715Z,53.84
2023-03-15T21:11:03.113Z,54.66
2023-03-15T21:13:31.638Z,54.46
2023-03-15T21:16:04.171Z,54.74
2023-03-15T21:18:37.689Z,55.83
2023-03-15T21:21:09.548Z,54.01
2023-03-15T21:23:39.962Z,54.38
2023-03-15T21:26:09.604Z,54.93
2023-03-15T21:28:39.452Z,54.63
2023-03-15T21:31:12.778Z,54.55
2023-03-15T21:33:44.504Z,54.39
2023-03-15T21:36:14.574Z,54.93
2023-03-15T21:38:43.610Z,54.92
2023-03-15T21:41:14.247Z,54.26
2023-03-15T21:43:44.345Z,54.33
2023-03-15T21:46:15.386Z,54.22
2023-03-15T21:48:45.695Z,54.82
2023-03-15T21:51:14.789Z,54.10
2023-03-15T21:53:43.986Z,54.77
2023-03-15T21:56:13.870Z,54.48
2023-03-15T21:58:42.896Z,54.48
2023-03-15T22:01:14.089Z,54.40
2023-03-15T22:03:44.312Z,54.26
2023-03-15T22:06:14.105Z,54.17
2023-03-15T22:08:43.201Z,54.59
2023-03-15T22:11:11.634Z,54.80
2023-03-15T22:13:41.666Z,55.23
2023-03-15T22:16:10.444Z,55.19
2023-03-15T22:18:39.091Z,55.33
2023-03-15T22:21:08.587Z,55.93
2023-03-15T22:23:45.565Z,56.20
2023-03-15T22:26:16.669Z,55.95
2023-03-15T22:28:46.615Z,56.23
2023-03-15T22:31:15.984Z,56.23
2023-03-15T22:33:46.102Z,56.61
2023-03-15T22:36:17.858Z,56.99
2023-03-15T22:38:50.076Z,57.05
2023-03-15T22:41:21.646Z,57.22
2023-03-15T22:43:52.629Z,56.53
2023-03-15T22:46:27.182Z,57.19
2023-03-15T22:48:55.783Z,57.40
2023-03-15T22:51:24.667Z,57.83
2023-03-15T22:53:55.025Z,57.49
2023-03-15T22:56:23.343Z,58.05
2023-03-15T22:58:52.238Z,58.48
2023-03-15T23:01:21.404Z,58.32
2023-03-15T23:03:49.761Z,58.84
2023-03-15T23:06:18.216Z,58.54
2023-03-15T23:08:47.534Z,58.81
2023-03-15T23:11:17.165Z,59.40
2023-03-15T23:13:48.335Z,59.77
2023-03-15T23:16:16.973Z,59.83
2023-03-15T23:18:45.327Z,59.87
2023-03-15T23:21:15.527Z,59.94
2023-03-15T23:23:46.011Z,60.32
2023-03-15T23:26:16.832Z,61.17
2023-03-15T23:28:45.196Z,60.45
2023-03-15T23:31:13.828Z,60.90
2023-03-15T23:33:43.391Z,60.66
2023-03-15T23:36:12.818Z,60.83
2023-03-15T23:38:43.044Z,60.56
2023-03-15T23:41:15.342Z,60.65
2023-03-15T23:43:47.465Z,60.60
2023-03-15T23:46:16.512Z,60.41
2023-03-15T23:48:46.347Z,60.75
2023-03-15T23:51:15.661Z,60.65
2023-03-15T23:53:44.177Z,60.81
2023-03-15T23:56:12.608Z,60.66
2023-03-15T23:58:41.058Z,60.31
